sensor_id;sensor_type;location;lat;lon;timestamp;pressure;altitude;pressure_sealevel;temperature;humidity
8573;BME280;4324;42.012;24.872;2022-09-09T00:02:01;99107.91;;;21.42;60.28
8573;BME280;4324;42.012;24.872;2022-09-09T00:04:33;99109.31;;;21.45;60.41
8573;BME280;4324;42.012;24.872;2022-09-09T00:07:04;99090.59;;;21.38;60.32
8573;BME280;4324;42.012;24.872;2022-09-09T00:09:38;99091.75;;;21.42;60.33
8573;BME280;4324;42.012;24.872;2022-09-09T00:12:11;99101.59;;;21.48;60.45
8573;BME280;4324;42.012;24.872;2022-09-09T00:14:48;99095.16;;;21.49;60.48
8573;BME280;4324;42.012;24.872;2022-09-09T00:17:26;99083.56;;;21.49;60.27
8573;BME280;4324;42.012;24.872;2022-09-09T00:20:03;99093.53;;;21.48;60.29
8573;BME280;4324;42.012;24.872;2022-09-09T00:22:32;99090.47;;;21.45;60.55
8573;BME280;4324;42.012;24.872;2022-09-09T00:25:08;99075.56;;;21.31;60.68
8573;BME280;4324;42.012;24.872;2022-09-09T00:27:41;99087.69;;;21.40;60.73
8573;BME280;4324;42.012;24.872;2022-09-09T00:30:16;99097.25;;;21.36;60.67
8573;BME280;4324;42.012;24.872;2022-09-09T00:32:45;99092.31;;;21.33;61.04
8573;BME280;4324;42.012;24.872;2022-09-09T00:35:22;99096.53;;;21.29;61.40
8573;BME280;4324;42.012;24.872;2022-09-09T00:37:52;99080.94;;;21.19;61.20
8573;BME280;4324;42.012;24.872;2022-09-09T00:40:27;99080.13;;;21.18;61.27
8573;BME280;4324;42.012;24.872;2022-09-09T00:43:21;99100.03;;;21.17;61.25
8573;BME280;4324;42.012;24.872;2022-09-09T00:46:04;99094.16;;;21.09;61.21
8573;BME280;4324;42.012;24.872;2022-09-09T00:48:41;99107.25;;;21.05;60.99
8573;BME280;4324;42.012;24.872;2022-09-09T00:51:15;99088.50;;;20.87;61.24
8573;BME280;4324;42.012;24.872;2022-09-09T00:54:11;99045.94;;;20.53;61.46
8573;BME280;4324;42.012;24.872;2022-09-09T00:56:49;99117.06;;;20.88;61.25
8573;BME280;4324;42.012;24.872;2022-09-09T00:59:26;99102.00;;;20.68;61.50
8573;BME280;4324;42.012;24.872;2022-09-09T01:01:54;99132.59;;;20.74;61.75
8573;BME280;4324;42.012;24.872;2022-09-09T01:04:29;99113.72;;;20.62;61.84
8573;BME280;4324;42.012;24.872;2022-09-09T01:07:13;99116.69;;;20.54;61.97
8573;BME280;4324;42.012;24.872;2022-09-09T01:09:51;99117.38;;;20.49;62.28
8573;BME280;4324;42.012;24.872;2022-09-09T01:12:25;99120.59;;;20.40;62.47
8573;BME280;4324;42.012;24.872;2022-09-09T01:14:58;99119.13;;;20.25;62.58
8573;BME280;4324;42.012;24.872;2022-09-09T01:17:31;99117.94;;;20.21;62.67
8573;BME280;4324;42.012;24.872;2022-09-09T01:20:09;99131.16;;;20.23;62.85
8573;BME280;4324;42.012;24.872;2022-09-09T01:22:47;99130.66;;;20.14;63.19
8573;BME280;4324;42.012;24.872;2022-09-09T01:25:25;99125.09;;;20.09;63.29
8573;BME280;4324;42.012;24.872;2022-09-09T01:27:57;99116.91;;;20.04;63.21
8573;BME280;4324;42.012;24.872;2022-09-09T01:30:26;99104.97;;;20.00;63.39
8573;BME280;4324;42.012;24.872;2022-09-09T01:32:55;99105.91;;;20.05;63.56
8573;BME280;4324;42.012;24.872;2022-09-09T01:35:31;99086.91;;;19.89;63.60
8573;BME280;4324;42.012;24.872;2022-09-09T01:37:59;99114.81;;;20.06;63.63
8573;BME280;4324;42.012;24.872;2022-09-09T01:40:27;99123.72;;;20.06;63.82
8573;BME280;4324;42.012;24.872;2022-09-09T01:42:56;99113.78;;;20.07;63.88
8573;BME280;4324;42.012;24.872;2022-09-09T01:45:23;99091.34;;;19.95;63.96
8573;BME280;4324;42.012;24.872;2022-09-09T01:47:52;99115.03;;;20.04;64.01
8573;BME280;4324;42.012;24.872;2022-09-09T01:50:19;99106.97;;;20.04;64.11
8573;BME280;4324;42.012;24.872;2022-09-09T01:52:49;99104.97;;;20.00;64.25
8573;BME280;4324;42.012;24.872;2022-09-09T01:55:18;99106.44;;;19.96;64.33
8573;BME280;4324;42.012;24.872;2022-09-09T01:57:58;99057.00;;;19.60;64.52
8573;BME280;4324;42.012;24.872;2022-09-09T02:00:28;99096.53;;;19.78;64.63
8573;BME280;4324;42.012;24.872;2022-09-09T02:03:00;99109.44;;;19.88;64.96
8573;BME280;4324;42.012;24.872;2022-09-09T02:05:34;99112.13;;;19.88;65.15
8573;BME280;4324;42.012;24.872;2022-09-09T02:08:06;99094.34;;;19.87;65.04
8573;BME280;4324;42.012;24.872;2022-09-09T02:10:40;99099.88;;;19.73;65.06
8573;BME280;4324;42.012;24.872;2022-09-09T02:13:12;99104.25;;;19.68;65.42
8573;BME280;4324;42.012;24.872;2022-09-09T02:15:45;99098.53;;;19.57;65.55
8573;BME280;4324;42.012;24.872;2022-09-09T02:18:21;99106.97;;;19.61;65.34
8573;BME280;4324;42.012;24.872;2022-09-09T02:20:51;99105.34;;;19.60;65.14
8573;BME280;4324;42.012;24.872;2022-09-09T02:23:19;99106.16;;;19.61;65.11
8573;BME280;4324;42.012;24.872;2022-09-09T02:25:48;99106.97;;;19.61;65.29
8573;BME280;4324;42.012;24.872;2022-09-09T02:28:20;99092.97;;;19.59;65.08
8573;BME280;4324;42.012;24.872;2022-09-09T02:30:50;99095.84;;;19.64;65.45
8573;BME280;4324;42.012;24.872;2022-09-09T02:33:24;99104.72;;;19.65;65.63
8573;BME280;4324;42.012;24.872;2022-09-09T02:35:52;99079.97;;;19.56;65.80
8573;BME280;4324;42.012;24.872;2022-09-09T02:38:24;99061.78;;;19.40;65.62
8573;BME280;4324;42.012;24.872;2022-09-09T02:40:53;99095.84;;;19.57;65.60
8573;BME280;4324;42.012;24.872;2022-09-09T02:43:21;99104.25;;;19.68;65.76
8573;BME280;4324;42.012;24.872;2022-09-09T02:45:57;99095.25;;;19.62;65.87
8573;BME280;4324;42.012;24.872;2022-09-09T02:48:30;99096.25;;;19.61;65.98
8573;BME280;4324;42.012;24.872;2022-09-09T02:51:06;99095.84;;;19.64;65.64
8573;BME280;4324;42.012;24.872;2022-09-09T02:53:41;99083.44;;;19.63;65.95
8573;BME280;4324;42.012;24.872;2022-09-09T02:56:13;99083.44;;;19.63;66.03
8573;BME280;4324;42.012;24.872;2022-09-09T02:58:43;99086.66;;;19.72;66.06
8573;BME280;4324;42.012;24.872;2022-09-09T03:01:11;99085.84;;;19.71;66.08
8573;BME280;4324;42.012;24.872;2022-09-09T03:03:39;99097.03;;;19.68;66.14
8573;BME280;4324;42.012;24.872;2022-09-09T03:06:07;99089.22;;;19.60;66.46
8573;BME280;4324;42.012;24.872;2022-09-09T03:08:33;99088.66;;;19.58;66.61
8573;BME280;4324;42.012;24.872;2022-09-09T03:11:01;99097.72;;;19.57;66.67
8573;BME280;4324;42.012;24.872;2022-09-09T03:13:28;99094.00;;;19.40;66.47
8573;BME280;4324;42.012;24.872;2022-09-09T03:15:56;99125.31;;;19.46;65.49
8573;BME280;4324;42.012;24.872;2022-09-09T03:18:23;99128.91;;;19.40;64.75
8573;BME280;4324;42.012;24.872;2022-09-09T03:20:50;99120.47;;;19.36;64.08
8573;BME280;4324;42.012;24.872;2022-09-09T03:23:19;99130.81;;;19.32;64.77
8573;BME280;4324;42.012;24.872;2022-09-09T03:25:47;99113.50;;;19.28;64.89
8573;BME280;4324;42.012;24.872;2022-09-09T03:28:15;99121.72;;;19.33;64.88
8573;BME280;4324;42.012;24.872;2022-09-09T03:30:42;99127.47;;;19.37;64.65
8573;BME280;4324;42.012;24.872;2022-09-09T03:33:10;99133.06;;;19.36;65.28
8573;BME280;4324;42.012;24.872;2022-09-09T03:35:37;99126.66;;;19.37;65.62
8573;BME280;4324;42.012;24.872;2022-09-09T03:38:04;99133.56;;;19.51;65.80
8573;BME280;4324;42.012;24.872;2022-09-09T03:40:31;99132.66;;;19.57;65.83
8573;BME280;4324;42.012;24.872;2022-09-09T03:42:59;99113.63;;;19.58;65.89
8573;BME280;4324;42.012;24.872;2022-09-09T03:45:25;99114.66;;;19.57;66.01
8573;BME280;4324;42.012;24.872;2022-09-09T03:47:52;99105.78;;;19.57;66.01
8573;BME280;4324;42.012;24.872;2022-09-09T03:50:21;99126.00;;;19.66;66.36
8573;BME280;4324;42.012;24.872;2022-09-09T03:52:49;99130.94;;;19.69;66.33
8573;BME280;4324;42.012;24.872;2022-09-09T03:55:16;99130.94;;;19.69;66.13
8573;BME280;4324;42.012;24.872;2022-09-09T03:57:43;99130.16;;;19.62;65.95
8573;BME280;4324;42.012;24.872;2022-09-09T04:00:10;99128.75;;;19.53;66.27
8573;BME280;4324;42.012;24.872;2022-09-09T04:02:37;99125.03;;;19.54;66.68
8573;BME280;4324;42.012;24.872;2022-09-09T04:05:05;99134.50;;;19.63;66.77
8573;BME280;4324;42.012;24.872;2022-09-09T04:07:33;99122.69;;;19.64;66.66
8573;BME280;4324;42.012;24.872;2022-09-09T04:10:00;99118.50;;;19.68;66.31
8573;BME280;4324;42.012;24.872;2022-09-09T04:12:30;99125.56;;;19.69;66.59
8573;BME280;4324;42.012;24.872;2022-09-09T04:15:00;99108.22;;;19.65;66.26
8573;BME280;4324;42.012;24.872;2022-09-09T04:17:28;99097.16;;;19.55;66.63
8573;BME280;4324;42.012;24.872;2022-09-09T04:19:55;99119.84;;;19.59;66.92
8573;BME280;4324;42.012;24.872;2022-09-09T04:22:22;99107.88;;;19.55;66.26
8573;BME280;4324;42.012;24.872;2022-09-09T04:24:51;99119.34;;;19.69;66.58
8573;BME280;4324;42.012;24.872;2022-09-09T04:27:18;99108.97;;;19.72;66.69
8573;BME280;4324;42.012;24.872;2022-09-09T04:29:47;99101.19;;;19.64;66.44
8573;BME280;4324;42.012;24.872;2022-09-09T04:32:14;99127.56;;;19.74;65.39
8573;BME280;4324;42.012;24.872;2022-09-09T04:34:40;99127.66;;;19.61;64.56
8573;BME280;4324;42.012;24.872;2022-09-09T04:37:07;99135.03;;;19.47;64.15
8573;BME280;4324;42.012;24.872;2022-09-09T04:39:35;99132.44;;;19.33;65.23
8573;BME280;4324;42.012;24.872;2022-09-09T04:42:03;99127.56;;;19.24;65.89
8573;BME280;4324;42.012;24.872;2022-09-09T04:44:30;99142.03;;;19.23;66.56
8573;BME280;4324;42.012;24.872;2022-09-09T04:46:59;99108.06;;;19.10;66.73
8573;BME280;4324;42.012;24.872;2022-09-09T04:49:27;99136.94;;;19.40;67.02
8573;BME280;4324;42.012;24.872;2022-09-09T04:52:18;99136.50;;;19.43;66.90
8573;BME280;4324;42.012;24.872;2022-09-09T04:54:45;99110.75;;;19.35;67.08
8573;BME280;4324;42.012;24.872;2022-09-09T04:57:14;99135.13;;;19.58;67.18
8573;BME280;4324;42.012;24.872;2022-09-09T04:59:41;99138.69;;;19.77;66.98
8573;BME280;4324;42.012;24.872;2022-09-09T05:02:08;99135.84;;;19.91;66.94
8573;BME280;4324;42.012;24.872;2022-09-09T05:04:35;99129.28;;;19.87;65.76
8573;BME280;4324;42.012;24.872;2022-09-09T05:07:02;99141.91;;;19.86;65.37
8573;BME280;4324;42.012;24.872;2022-09-09T05:09:29;99116.38;;;19.52;65.97
8573;BME280;4324;42.012;24.872;2022-09-09T05:11:56;99149.88;;;19.74;66.47
8573;BME280;4324;42.012;24.872;2022-09-09T05:14:25;99163.47;;;19.79;66.82
8573;BME280;4324;42.012;24.872;2022-09-09T05:16:52;99161.75;;;19.85;66.86
8573;BME280;4324;42.012;24.872;2022-09-09T05:19:19;99164.22;;;19.87;67.06
8573;BME280;4324;42.012;24.872;2022-09-09T05:21:45;99154.53;;;19.86;67.18
8573;BME280;4324;42.012;24.872;2022-09-09T05:24:28;99127.78;;;19.72;67.42
8573;BME280;4324;42.012;24.872;2022-09-09T05:27:01;99147.94;;;19.81;67.66
8573;BME280;4324;42.012;24.872;2022-09-09T05:29:29;99154.38;;;19.80;67.51
8573;BME280;4324;42.012;24.872;2022-09-09T05:31:59;99158.56;;;19.76;67.99
8573;BME280;4324;42.012;24.872;2022-09-09T05:34:26;99146.00;;;19.70;68.04
8573;BME280;4324;42.012;24.872;2022-09-09T05:36:52;99140.00;;;19.68;68.29
8573;BME280;4324;42.012;24.872;2022-09-09T05:39:19;99123.50;;;19.65;68.36
8573;BME280;4324;42.012;24.872;2022-09-09T05:41:46;99115.81;;;19.68;68.31
8573;BME280;4324;42.012;24.872;2022-09-09T05:44:13;99124.13;;;19.85;68.27
8573;BME280;4324;42.012;24.872;2022-09-09T05:46:44;99129.59;;;19.97;68.22
8573;BME280;4324;42.012;24.872;2022-09-09T05:49:13;99139.00;;;20.06;67.87
8573;BME280;4324;42.012;24.872;2022-09-09T05:51:41;99135.09;;;20.02;67.79
8573;BME280;4324;42.012;24.872;2022-09-09T05:54:09;99153.47;;;20.05;67.80
8573;BME280;4324;42.012;24.872;2022-09-09T05:56:43;99155.03;;;20.13;68.27
8573;BME280;4324;42.012;24.872;2022-09-09T05:59:10;99162.66;;;20.16;68.03
8573;BME280;4324;42.012;24.872;2022-09-09T06:01:38;99159.78;;;20.17;68.11
8573;BME280;4324;42.012;24.872;2022-09-09T06:04:07;99161.41;;;20.18;68.18
8573;BME280;4324;42.012;24.872;2022-09-09T06:06:35;99154.84;;;20.14;68.19
8573;BME280;4324;42.012;24.872;2022-09-09T06:09:08;99098.53;;;19.82;68.15
8573;BME280;4324;42.012;24.872;2022-09-09T06:11:38;99157.81;;;20.24;68.21
8573;BME280;4324;42.012;24.872;2022-09-09T06:14:06;99146.28;;;20.36;68.26
8573;BME280;4324;42.012;24.872;2022-09-09T06:16:40;99119.56;;;20.41;67.85
8573;BME280;4324;42.012;24.872;2022-09-09T06:19:21;99126.81;;;20.59;67.87
8573;BME280;4324;42.012;24.872;2022-09-09T06:21:49;99121.00;;;20.73;67.54
8573;BME280;4324;42.012;24.872;2022-09-09T06:24:17;99079.66;;;20.56;67.21
8573;BME280;4324;42.012;24.872;2022-09-09T06:26:45;99106.44;;;20.93;67.04
8573;BME280;4324;42.012;24.872;2022-09-09T06:29:12;99121.69;;;21.11;66.92
8573;BME280;4324;42.012;24.872;2022-09-09T06:31:42;99110.69;;;21.24;66.50
8573;BME280;4324;42.012;24.872;2022-09-09T06:34:09;99115.88;;;21.37;66.31
8573;BME280;4324;42.012;24.872;2022-09-09T06:36:39;99108.88;;;21.48;65.82
8573;BME280;4324;42.012;24.872;2022-09-09T06:39:06;99105.91;;;21.61;65.53
8573;BME280;4324;42.012;24.872;2022-09-09T06:41:34;99107.09;;;21.65;65.47
8573;BME280;4324;42.012;24.872;2022-09-09T06:44:01;99123.97;;;21.72;65.25
8573;BME280;4324;42.012;24.872;2022-09-09T06:46:31;99138.59;;;21.77;65.29
8573;BME280;4324;42.012;24.872;2022-09-09T06:49:01;99131.00;;;21.85;65.23
8573;BME280;4324;42.012;24.872;2022-09-09T06:51:30;99116.94;;;21.71;65.13
8573;BME280;4324;42.012;24.872;2022-09-09T06:54:00;99139.88;;;21.86;65.19
8573;BME280;4324;42.012;24.872;2022-09-09T06:56:29;99132.41;;;21.88;65.02
8573;BME280;4324;42.012;24.872;2022-09-09T06:58:58;99146.69;;;22.00;65.04
8573;BME280;4324;42.012;24.872;2022-09-09T07:01:27;99125.47;;;21.92;64.87
8573;BME280;4324;42.012;24.872;2022-09-09T07:03:56;99149.09;;;22.13;64.64
8573;BME280;4324;42.012;24.872;2022-09-09T07:06:25;99152.03;;;22.23;64.53
8573;BME280;4324;42.012;24.872;2022-09-09T07:08:54;99141.72;;;22.32;64.37
8573;BME280;4324;42.012;24.872;2022-09-09T07:11:24;99145.41;;;22.43;64.07
8573;BME280;4324;42.012;24.872;2022-09-09T07:13:52;99148.25;;;22.48;63.90
8573;BME280;4324;42.012;24.872;2022-09-09T07:16:21;99153.72;;;22.53;63.50
8573;BME280;4324;42.012;24.872;2022-09-09T07:18:50;99154.31;;;22.55;63.64
8573;BME280;4324;42.012;24.872;2022-09-09T07:21:19;99152.84;;;22.64;63.44
8573;BME280;4324;42.012;24.872;2022-09-09T07:23:50;99154.59;;;22.70;63.32
8573;BME280;4324;42.012;24.872;2022-09-09T07:26:29;99148.13;;;22.71;62.98
8573;BME280;4324;42.012;24.872;2022-09-09T07:28:57;99123.75;;;22.66;62.95
8573;BME280;4324;42.012;24.872;2022-09-09T07:31:25;99127.81;;;22.81;62.88
8573;BME280;4324;42.012;24.872;2022-09-09T07:33:53;99123.06;;;22.88;62.74
8573;BME280;4324;42.012;24.872;2022-09-09T07:36:23;99130.06;;;23.01;62.36
8573;BME280;4324;42.012;24.872;2022-09-09T07:38:53;99140.78;;;23.12;62.37
8573;BME280;4324;42.012;24.872;2022-09-09T07:41:23;99125.31;;;23.08;61.81
8573;BME280;4324;42.012;24.872;2022-09-09T07:43:53;99142.53;;;23.18;62.12
8573;BME280;4324;42.012;24.872;2022-09-09T07:46:21;99143.34;;;23.19;62.10
8573;BME280;4324;42.012;24.872;2022-09-09T07:48:50;99130.22;;;23.28;61.73
8573;BME280;4324;42.012;24.872;2022-09-09T07:51:20;99120.66;;;23.37;61.68
8573;BME280;4324;42.012;24.872;2022-09-09T07:53:50;99125.81;;;23.55;61.43
8573;BME280;4324;42.012;24.872;2022-09-09T07:56:18;99123.50;;;23.64;60.99
8573;BME280;4324;42.012;24.872;2022-09-09T07:58:49;99124.00;;;23.78;61.08
8573;BME280;4324;42.012;24.872;2022-09-09T08:01:19;99127.25;;;23.80;60.80
8573;BME280;4324;42.012;24.872;2022-09-09T08:03:51;99128.41;;;23.84;60.61
8573;BME280;4324;42.012;24.872;2022-09-09T08:06:19;99132.75;;;23.85;60.58
8573;BME280;4324;42.012;24.872;2022-09-09T08:08:49;99108.31;;;23.80;60.46
8573;BME280;4324;42.012;24.872;2022-09-09T08:11:17;99110.03;;;23.86;60.54
8573;BME280;4324;42.012;24.872;2022-09-09T08:13:44;99120.19;;;23.96;60.62
8573;BME280;4324;42.012;24.872;2022-09-09T08:16:13;99111.06;;;24.02;60.57
8573;BME280;4324;42.012;24.872;2022-09-09T08:18:52;99106.59;;;24.12;60.47
8573;BME280;4324;42.012;24.872;2022-09-09T08:21:21;99109.25;;;24.29;60.07
8573;BME280;4324;42.012;24.872;2022-09-09T08:23:51;99103.75;;;24.46;59.63
8573;BME280;4324;42.012;24.872;2022-09-09T08:26:19;99099.16;;;24.47;59.86
8573;BME280;4324;42.012;24.872;2022-09-09T08:28:49;99087.53;;;24.46;59.64
8573;BME280;4324;42.012;24.872;2022-09-09T08:31:19;99104.47;;;24.58;59.72
8573;BME280;4324;42.012;24.872;2022-09-09T08:33:50;99100.97;;;24.63;59.52
8573;BME280;4324;42.012;24.872;2022-09-09T08:36:28;99109.41;;;24.67;59.38
8573;BME280;4324;42.012;24.872;2022-09-09T08:39:08;99054.44;;;24.39;59.28
8573;BME280;4324;42.012;24.872;2022-09-09T08:42:04;99088.59;;;24.72;59.30
8573;BME280;4324;42.012;24.872;2022-09-09T08:44:50;99073.75;;;24.75;59.31
8573;BME280;4324;42.012;24.872;2022-09-09T08:47:26;99072.16;;;24.79;58.75
8573;BME280;4324;42.012;24.872;2022-09-09T08:50:13;99087.19;;;24.97;58.68
8573;BME280;4324;42.012;24.872;2022-09-09T08:52:51;99079.16;;;25.07;58.54
8573;BME280;4324;42.012;24.872;2022-09-09T08:55:27;99063.38;;;24.99;58.43
8573;BME280;4324;42.012;24.872;2022-09-09T08:57:57;99078.91;;;25.08;58.25
8573;BME280;4324;42.012;24.872;2022-09-09T09:00:32;99075.19;;;25.15;58.06
8573;BME280;4324;42.012;24.872;2022-09-09T09:03:07;99076.53;;;25.17;57.99
8573;BME280;4324;42.012;24.872;2022-09-09T09:05:46;99066.97;;;25.09;58.23
8573;BME280;4324;42.012;24.872;2022-09-09T09:08:20;99059.13;;;25.08;57.86
8573;BME280;4324;42.012;24.872;2022-09-09T09:10:53;99068.47;;;25.22;58.06
8573;BME280;4324;42.012;24.872;2022-09-09T09:13:30;99064.47;;;25.35;57.74
8573;BME280;4324;42.012;24.872;2022-09-09T09:16:17;99068.88;;;25.46;57.35
8573;BME280;4324;42.012;24.872;2022-09-09T09:19:08;99040.09;;;25.35;57.28
8573;BME280;4324;42.012;24.872;2022-09-09T09:21:43;99060.50;;;25.48;57.19
8573;BME280;4324;42.012;24.872;2022-09-09T09:24:17;99049.38;;;25.44;57.05
8573;BME280;4324;42.012;24.872;2022-09-09T09:26:48;99066.78;;;25.58;57.10
8573;BME280;4324;42.012;24.872;2022-09-09T09:29:24;99057.53;;;25.54;57.23
8573;BME280;4324;42.012;24.872;2022-09-09T09:31:53;99063.25;;;25.58;56.91
8573;BME280;4324;42.012;24.872;2022-09-09T09:34:22;99047.56;;;25.60;56.80
8573;BME280;4324;42.012;24.872;2022-09-09T09:36:54;99040.81;;;25.68;56.84
8573;BME280;4324;42.012;24.872;2022-09-09T09:39:31;99043.63;;;25.83;56.61
8573;BME280;4324;42.012;24.872;2022-09-09T09:42:32;99042.56;;;25.89;56.48
8573;BME280;4324;42.012;24.872;2022-09-09T09:45:41;99039.34;;;25.97;56.50
8573;BME280;4324;42.012;24.872;2022-09-09T09:51:59;99023.94;;;26.18;56.23
8573;BME280;4324;42.012;24.872;2022-09-09T09:54:34;99015.53;;;26.25;55.54
8573;BME280;4324;42.012;24.872;2022-09-09T09:57:25;99008.22;;;26.30;55.88
8573;BME280;4324;42.012;24.872;2022-09-09T10:00:04;99022.13;;;26.49;55.24
8573;BME280;4324;42.012;24.872;2022-09-09T10:02:55;99015.06;;;26.59;55.36
8573;BME280;4324;42.012;24.872;2022-09-09T10:05:29;99014.53;;;26.72;55.11
8573;BME280;4324;42.012;24.872;2022-09-09T10:08:11;99005.84;;;26.75;54.79
8573;BME280;4324;42.012;24.872;2022-09-09T10:11:27;98997.97;;;26.78;54.92
8573;BME280;4324;42.012;24.872;2022-09-09T10:14:36;98966.72;;;26.66;54.51
8573;BME280;4324;42.012;24.872;2022-09-09T10:17:30;98989.81;;;26.73;54.23
8573;BME280;4324;42.012;24.872;2022-09-09T10:20:20;99000.13;;;26.76;54.38
8573;BME280;4324;42.012;24.872;2022-09-09T10:23:42;98979.25;;;26.67;54.36
8573;BME280;4324;42.012;24.872;2022-09-09T10:26:25;98987.94;;;26.79;54.19
8573;BME280;4324;42.012;24.872;2022-09-09T10:29:12;98985.72;;;26.91;54.31
8573;BME280;4324;42.012;24.872;2022-09-09T10:31:54;98980.84;;;27.03;53.64
8573;BME280;4324;42.012;24.872;2022-09-09T10:38:10;98981.38;;;27.26;53.43
8573;BME280;4324;42.012;24.872;2022-09-09T10:40:48;98973.72;;;27.38;53.18
8573;BME280;4324;42.012;24.872;2022-09-09T10:43:39;98954.38;;;27.40;52.76
8573;BME280;4324;42.012;24.872;2022-09-09T10:46:34;98934.06;;;27.27;52.48
8573;BME280;4324;42.012;24.872;2022-09-09T10:49:18;98968.25;;;27.48;52.36
8573;BME280;4324;42.012;24.872;2022-09-09T10:51:56;98941.94;;;27.34;52.23
8573;BME280;4324;42.012;24.872;2022-09-09T10:54:36;98978.53;;;27.57;51.93
8573;BME280;4324;42.012;24.872;2022-09-09T10:57:13;98952.44;;;27.50;51.87
8573;BME280;4324;42.012;24.872;2022-09-09T10:59:48;98943.22;;;27.46;52.02
8573;BME280;4324;42.012;24.872;2022-09-09T11:02:32;98960.28;;;27.67;51.63
8573;BME280;4324;42.012;24.872;2022-09-09T11:05:05;98967.09;;;27.65;51.59
8573;BME280;4324;42.012;24.872;2022-09-09T11:07:42;98955.69;;;27.63;51.48
8573;BME280;4324;42.012;24.872;2022-09-09T11:10:20;98941.53;;;27.61;51.58
8573;BME280;4324;42.012;24.872;2022-09-09T11:12:54;98945.84;;;27.72;51.50
8573;BME280;4324;42.012;24.872;2022-09-09T11:15:28;98948.25;;;27.84;51.48
8573;BME280;4324;42.012;24.872;2022-09-09T11:17:58;98947.38;;;27.93;51.22
8573;BME280;4324;42.012;24.872;2022-09-09T11:20:42;98918.06;;;27.85;50.98
8573;BME280;4324;42.012;24.872;2022-09-09T11:23:15;98947.84;;;28.11;50.83
8573;BME280;4324;42.012;24.872;2022-09-09T11:25:46;98946.94;;;28.20;50.67
8573;BME280;4324;42.012;24.872;2022-09-09T11:28:36;98943.34;;;28.25;50.55
8573;BME280;4324;42.012;24.872;2022-09-09T11:31:34;98940.91;;;28.23;50.42
8573;BME280;4324;42.012;24.872;2022-09-09T11:37:53;98930.47;;;28.41;50.37
8573;BME280;4324;42.012;24.872;2022-09-09T11:40:23;98924.97;;;28.46;50.12
8573;BME280;4324;42.012;24.872;2022-09-09T11:43:02;98926.09;;;28.45;50.17
8573;BME280;4324;42.012;24.872;2022-09-09T11:45:36;98903.53;;;28.34;49.76
8573;BME280;4324;42.012;24.872;2022-09-09T11:48:04;98918.16;;;28.49;50.18
8573;BME280;4324;42.012;24.872;2022-09-09T11:50:57;98910.47;;;28.56;49.72
8573;BME280;4324;42.012;24.872;2022-09-09T11:53:28;98911.22;;;28.61;49.70
8573;BME280;4324;42.012;24.872;2022-09-09T11:56:07;98900.00;;;28.68;49.68
8573;BME280;4324;42.012;24.872;2022-09-09T11:58:55;98911.75;;;28.92;49.47
8573;BME280;4324;42.012;24.872;2022-09-09T12:01:40;98907.28;;;29.26;48.91
8573;BME280;4324;42.012;24.872;2022-09-09T12:04:21;98909.66;;;29.56;48.89
8573;BME280;4324;42.012;24.872;2022-09-09T12:06:56;98892.75;;;29.78;47.85
8573;BME280;4324;42.012;24.872;2022-09-09T12:09:33;98890.81;;;29.98;47.44
8573;BME280;4324;42.012;24.872;2022-09-09T12:12:23;98889.53;;;30.09;47.23
8573;BME280;4324;42.012;24.872;2022-09-09T12:15:22;98884.53;;;29.97;47.07
8573;BME280;4324;42.012;24.872;2022-09-09T12:17:53;98888.09;;;29.79;47.44
8573;BME280;4324;42.012;24.872;2022-09-09T12:21:30;98883.88;;;29.68;47.44
8573;BME280;4324;42.012;24.872;2022-09-09T12:24:08;98885.81;;;29.67;47.75
8573;BME280;4324;42.012;24.872;2022-09-09T12:26:39;98878.47;;;29.62;47.88
8573;BME280;4324;42.012;24.872;2022-09-09T12:29:16;98867.94;;;29.56;47.84
8573;BME280;4324;42.012;24.872;2022-09-09T12:31:56;98874.53;;;29.50;47.72
8573;BME280;4324;42.012;24.872;2022-09-09T12:34:35;98870.84;;;29.40;47.87
8573;BME280;4324;42.012;24.872;2022-09-09T12:37:08;98865.06;;;29.23;48.02
8573;BME280;4324;42.012;24.872;2022-09-09T12:39:42;98850.44;;;29.14;48.28
8573;BME280;4324;42.012;24.872;2022-09-09T12:42:19;98850.63;;;29.23;48.24
8573;BME280;4324;42.012;24.872;2022-09-09T12:44:57;98833.38;;;29.27;48.03
8573;BME280;4324;42.012;24.872;2022-09-09T12:47:32;98822.63;;;29.36;47.91
8573;BME280;4324;42.012;24.872;2022-09-09T12:50:15;98821.81;;;29.59;47.62
8573;BME280;4324;42.012;24.872;2022-09-09T12:52:43;98839.19;;;29.82;47.56
8573;BME280;4324;42.012;24.872;2022-09-09T12:55:19;98822.59;;;29.79;47.65
8573;BME280;4324;42.012;24.872;2022-09-09T12:57:48;98818.38;;;29.86;47.72
8573;BME280;4324;42.012;24.872;2022-09-09T13:00:19;98827.88;;;30.08;47.39
8573;BME280;4324;42.012;24.872;2022-09-09T13:02:50;98832.63;;;30.16;46.86
8573;BME280;4324;42.012;24.872;2022-09-09T13:05:25;98832.63;;;30.16;47.15
8573;BME280;4324;42.012;24.872;2022-09-09T13:08:01;98828.94;;;30.07;46.82
8573;BME280;4324;42.012;24.872;2022-09-09T13:10:30;98822.84;;;29.96;46.62
8573;BME280;4324;42.012;24.872;2022-09-09T13:13:01;98824.63;;;29.87;46.70
8573;BME280;4324;42.012;24.872;2022-09-09T13:15:29;98825.09;;;29.75;46.74
8573;BME280;4324;42.012;24.872;2022-09-09T13:17:57;98804.88;;;29.57;47.09
8573;BME280;4324;42.012;24.872;2022-09-09T13:20:28;98815.44;;;29.64;47.23
8573;BME280;4324;42.012;24.872;2022-09-09T13:22:56;98813.97;;;29.72;47.05
8573;BME280;4324;42.012;24.872;2022-09-09T13:25:26;98815.22;;;29.79;47.11
8573;BME280;4324;42.012;24.872;2022-09-09T13:27:56;98808.47;;;29.90;46.91
8573;BME280;4324;42.012;24.872;2022-09-09T13:30:26;98811.66;;;29.98;46.89
8573;BME280;4324;42.012;24.872;2022-09-09T13:33:05;98805.66;;;29.96;46.76
8573;BME280;4324;42.012;24.872;2022-09-09T13:35:34;98808.31;;;30.01;46.87
8573;BME280;4324;42.012;24.872;2022-09-09T13:38:07;98807.41;;;30.05;46.73
8573;BME280;4324;42.012;24.872;2022-09-09T13:40:35;98791.25;;;30.09;46.71
8573;BME280;4324;42.012;24.872;2022-09-09T13:43:14;98803.19;;;30.13;46.59
8573;BME280;4324;42.012;24.872;2022-09-09T13:45:55;98804.91;;;30.09;46.65
8573;BME280;4324;42.012;24.872;2022-09-09T13:48:23;98801.66;;;30.07;46.83
8573;BME280;4324;42.012;24.872;2022-09-09T13:50:58;98789.91;;;30.06;46.74
8573;BME280;4324;42.012;24.872;2022-09-09T13:53:25;98791.41;;;30.18;46.40
8573;BME280;4324;42.012;24.872;2022-09-09T13:55:52;98772.03;;;30.14;46.39